Ephrata, Washington
Current Conditions -  °F | °C
As of 10:20 PM on Friday 24 Oct 2014 (Local Time) from KEPH Reporting Station
Overcast Overcast  
Wind Chill: 50°   Ceiling: 1400
Heat Index: 50°   Visibility: 10mi
Dew Point: 48°   Wind: 10mph
Humidity: 93%   Direction: 350°N
Pressure: 29.93"   Gusts: NA
Location:  47.32°N, 119.55°W
Report Text: KEPH 250520Z AUTO 35009KT 10SM OVC014 10/09 A2993 RMK AO2 RAE11 P0000 T01000089
Loading
Personal Weather Stations






























Interactive Weather Map New forecast layout! Learn more

10-Day Weather Forecast

Advertisements
Track Severe Weather on mobile